Time;durP1;ratioP1;P1;durP2;ratioP2;P2;SDS_P1;SDS_P2;PMS_P1;PMS_P2;Temp;Humidity;BMP_temperature;BMP_pressure;BME280_temperature;BME280_humidity;BME280_pressure;Samples;Min_cycle;Max_cycle;Signal;HPM_P1;HPM_P2
2022/03/11 00:01:59;;;;;;;13.45;7.65;;;7.30;77.90;;;;;;4996509;28;20069;-71
2022/03/11 00:04:24;;;;;;;13.25;7.70;;;7.10;78.80;;;;;;5011685;28;20084;-71
2022/03/11 00:06:50;;;;;;;12.93;6.80;;;7.10;78.80;;;;;;5012669;28;20132;-71
2022/03/11 00:09:15;;;;;;;14.93;8.18;;;7.00;79.70;;;;;;4994638;28;20041;-71
2022/03/11 00:11:41;;;;;;;13.43;7.32;;;7.00;80.40;;;;;;5012726;28;20382;-71
2022/03/11 00:14:06;;;;;;;12.10;7.32;;;7.00;81.10;;;;;;5009314;28;20387;-71
2022/03/11 00:16:32;;;;;;;16.88;8.40;;;6.90;81.20;;;;;;4994815;28;20482;-71
2022/03/11 00:18:58;;;;;;;15.20;7.43;;;6.90;81.40;;;;;;5011919;28;20049;-71
2022/03/11 00:21:23;;;;;;;12.32;7.18;;;7.00;80.90;;;;;;5012407;28;20544;-71
2022/03/11 00:23:49;;;;;;;12.40;7.03;;;6.90;81.40;;;;;;5011781;28;20096;-71
2022/03/11 00:26:14;;;;;;;13.07;7.05;;;6.90;81.90;;;;;;5011282;28;20045;-71
2022/03/11 00:28:40;;;;;;;11.98;6.80;;;6.90;81.70;;;;;;4996391;28;20034;-71
2022/03/11 00:31:06;;;;;;;12.30;7.28;;;6.80;82.30;;;;;;5008942;28;20061;-70
2022/03/11 00:33:32;;;;;;;13.85;7.30;;;6.80;83.00;;;;;;4996013;28;20049;-71
2022/03/11 00:35:58;;;;;;;11.68;7.38;;;6.70;83.90;;;;;;4994454;28;20129;-71
2022/03/11 00:38:23;;;;;;;13.23;7.30;;;6.70;85.10;;;;;;4995808;28;20501;-71
2022/03/11 00:40:51;;;;;;;13.48;7.43;;;6.70;84.60;;;;;;4995123;28;20054;-71
2022/03/11 00:43:17;;;;;;;12.20;6.88;;;6.70;85.60;;;;;;5010769;28;20042;-71
2022/03/11 00:45:44;;;;;;;13.75;6.88;;;6.60;86.60;;;;;;5000147;28;20070;-71
2022/03/11 00:48:09;;;;;;;11.50;6.15;;;6.70;86.30;;;;;;4994260;28;20135;-71
2022/03/11 00:50:35;;;;;;;12.32;6.63;;;6.80;84.70;;;;;;5026416;28;20120;-71
2022/03/11 00:53:02;;;;;;;14.02;6.57;;;6.70;86.20;;;;;;5012183;28;20041;-71
2022/03/11 00:55:27;;;;;;;13.18;7.72;;;6.70;88.00;;;;;;4994815;28;20038;-71
2022/03/11 00:57:53;;;;;;;12.77;6.60;;;6.50;89.30;;;;;;4995681;28;20045;-71
2022/03/11 01:00:19;;;;;;;10.52;6.28;;;6.60;88.00;;;;;;5010999;28;20041;-71
2022/03/11 01:02:44;;;;;;;10.73;6.43;;;6.70;90.00;;;;;;5011991;28;20468;-71
2022/03/11 01:05:11;;;;;;;11.75;6.45;;;6.50;90.00;;;;;;5009778;28;20063;-71
2022/03/11 01:07:37;;;;;;;12.25;6.65;;;6.60;89.50;;;;;;5011942;28;20064;-71
2022/03/11 01:10:04;;;;;;;13.10;6.18;;;6.60;90.10;;;;;;4993413;28;20502;-71
2022/03/11 01:12:29;;;;;;;12.02;6.40;;;6.50;91.20;;;;;;4995857;28;20038;-71
2022/03/11 01:14:55;;;;;;;13.30;6.72;;;6.40;92.10;;;;;;4994150;28;20085;-71
2022/03/11 01:17:20;;;;;;;11.20;6.40;;;6.40;91.50;;;;;;4995537;28;20056;-71
2022/03/11 01:19:46;;;;;;;13.43;7.22;;;6.50;91.40;;;;;;5012325;28;20505;-71
2022/03/11 01:22:11;;;;;;;13.30;6.88;;;6.50;91.70;;;;;;5014911;28;20049;-71
2022/03/11 01:24:37;;;;;;;13.20;6.45;;;6.50;91.50;;;;;;4998261;28;20046;-71
2022/03/11 01:27:03;;;;;;;12.32;7.25;;;6.40;91.90;;;;;;4996038;28;20049;-71
2022/03/11 01:29:28;;;;;;;12.48;6.38;;;6.40;92.30;;;;;;4997726;28;20034;-71
2022/03/11 01:31:54;;;;;;;12.75;6.35;;;6.40;92.60;;;;;;5015629;28;20038;-71
2022/03/11 01:34:20;;;;;;;14.13;6.88;;;6.30;93.50;;;;;;5014745;28;20057;-71
2022/03/11 01:36:46;;;;;;;13.40;7.85;;;6.30;93.00;;;;;;5014196;28;20045;-71
2022/03/11 01:39:12;;;;;;;13.63;7.07;;;6.20;94.00;;;;;;5013243;28;20053;-71
2022/03/11 01:41:38;;;;;;;13.18;7.47;;;6.30;93.80;;;;;;5015366;28;20088;-71
2022/03/11 01:44:06;;;;;;;13.60;7.50;;;6.30;93.80;;;;;;4998332;28;20034;-71
2022/03/11 01:46:32;;;;;;;13.85;7.32;;;6.10;95.20;;;;;;4999042;28;20042;-71
2022/03/11 01:48:59;;;;;;;12.63;7.38;;;6.10;95.40;;;;;;5014151;28;20410;-71
2022/03/11 01:51:26;;;;;;;12.80;7.15;;;6.10;95.60;;;;;;5029759;28;20038;-71
2022/03/11 01:53:53;;;;;;;13.23;7.45;;;6.10;96.00;;;;;;5014212;28;20038;-71
2022/03/11 01:56:19;;;;;;;14.77;7.85;;;6.10;95.40;;;;;;4998889;28;20129;-71
2022/03/11 01:58:49;;;;;;;14.07;7.90;;;6.00;96.60;;;;;;5003105;28;20113;-71
2022/03/11 02:01:15;;;;;;;14.70;8.25;;;6.10;95.40;;;;;;4991946;28;20038;-71
2022/03/11 02:03:41;;;;;;;13.77;7.65;;;6.10;96.50;;;;;;4997236;28;20037;-71
2022/03/11 02:06:08;;;;;;;14.48;7.28;;;6.00;96.10;;;;;;5013989;28;20038;-71
2022/03/11 02:08:35;;;;;;;13.30;7.63;;;6.10;95.70;;;;;;4998540;28;20042;-71
2022/03/11 02:11:01;;;;;;;14.57;8.13;;;6.10;95.40;;;;;;5006511;28;20414;-71
2022/03/11 02:13:27;;;;;;;13.73;8.00;;;6.10;95.30;;;;;;4997671;28;20125;-71
2022/03/11 02:15:53;;;;;;;14.73;8.95;;;6.20;95.50;;;;;;5015072;28;20149;-71
2022/03/11 02:18:19;;;;;;;14.95;8.57;;;6.10;96.10;;;;;;5013693;28;20048;-71
2022/03/11 02:20:48;;;;;;;14.60;8.32;;;6.00;96.10;;;;;;5014684;28;20056;-71
2022/03/11 02:23:15;;;;;;;15.55;8.55;;;6.00;96.90;;;;;;5013719;28;20083;-70
2022/03/11 02:25:41;;;;;;;14.70;9.10;;;5.90;96.70;;;;;;4998600;28;20064;-71
2022/03/11 02:28:07;;;;;;;14.10;8.73;;;6.00;96.40;;;;;;5013571;28;20030;-71
2022/03/11 02:30:32;;;;;;;15.77;9.35;;;6.00;96.60;;;;;;4997212;28;20115;-71
2022/03/11 02:32:58;;;;;;;18.13;9.43;;;5.90;96.80;;;;;;5012019;28;20501;-71
2022/03/11 02:35:23;;;;;;;19.27;10.45;;;5.90;97.20;;;;;;4998098;28;20042;-71
2022/03/11 02:37:49;;;;;;;16.10;9.38;;;5.90;96.90;;;;;;4996147;28;20107;-71
2022/03/11 02:40:14;;;;;;;17.23;9.60;;;5.80;97.60;;;;;;4997179;28;20410;-71
2022/03/11 02:42:40;;;;;;;16.73;9.50;;;5.70;97.50;;;;;;5013369;28;20059;-71
2022/03/11 02:45:07;;;;;;;17.20;10.35;;;5.90;97.20;;;;;;5014221;28;20516;-70
2022/03/11 02:47:33;;;;;;;15.70;9.15;;;5.90;97.30;;;;;;4997687;28;20041;-71
2022/03/11 02:49:58;;;;;;;17.90;9.93;;;5.80;97.70;;;;;;5009199;28;20394;-70
2022/03/11 02:52:26;;;;;;;18.02;10.45;;;5.70;98.10;;;;;;5014158;28;20038;-71
2022/03/11 02:54:51;;;;;;;16.90;10.35;;;5.70;97.90;;;;;;5029150;28;20049;-71
2022/03/11 02:57:17;;;;;;;17.20;10.43;;;5.70;98.80;;;;;;5013937;28;20152;-71
2022/03/11 02:59:47;;;;;;;20.33;10.23;;;5.60;97.90;;;;;;5011121;28;20088;-71
2022/03/11 03:02:13;;;;;;;18.05;10.95;;;5.60;98.50;;;;;;4993997;28;20059;-71
2022/03/11 03:04:39;;;;;;;19.80;11.02;;;5.50;98.90;;;;;;4993686;28;20475;-71
2022/03/11 03:07:05;;;;;;;18.88;10.50;;;5.60;98.30;;;;;;5028982;28;20107;-71
2022/03/11 03:09:31;;;;;;;19.90;11.32;;;5.60;98.50;;;;;;5011675;28;20037;-71
2022/03/11 03:11:56;;;;;;;17.95;11.35;;;5.60;98.40;;;;;;4997785;28;20069;-71
2022/03/11 03:14:22;;;;;;;19.02;11.50;;;5.50;98.50;;;;;;5016996;28;20073;-71
2022/03/11 03:16:47;;;;;;;19.75;12.32;;;5.60;98.50;;;;;;5010357;28;20483;-71
2022/03/11 03:19:13;;;;;;;18.65;11.35;;;5.60;98.10;;;;;;5004324;28;20097;-71
2022/03/11 03:21:39;;;;;;;20.40;11.80;;;5.50;98.40;;;;;;5010809;28;20034;-71
2022/03/11 03:24:08;;;;;;;20.60;12.90;;;5.40;98.70;;;;;;5012277;28;20553;-71
2022/03/11 03:26:34;;;;;;;19.40;11.40;;;5.30;99.80;;;;;;4996678;28;20042;-71
2022/03/11 03:28:59;;;;;;;19.30;11.35;;;5.40;98.80;;;;;;5028452;28;20537;-71
2022/03/11 03:31:25;;;;;;;20.50;12.48;;;5.40;98.90;;;;;;4995401;28;20124;-71
2022/03/11 03:33:51;;;;;;;18.48;10.63;;;5.30;99.00;;;;;;5012175;28;20026;-71
2022/03/11 03:36:16;;;;;;;19.90;11.60;;;5.30;99.10;;;;;;4996276;28;20034;-71
2022/03/11 03:38:42;;;;;;;19.98;12.98;;;5.40;98.60;;;;;;5028659;28;20438;-71
2022/03/11 03:41:08;;;;;;;19.48;11.00;;;5.30;99.70;;;;;;4995727;28;20092;-71
2022/03/11 03:43:33;;;;;;;21.13;12.70;;;5.20;99.60;;;;;;4994797;28;20033;-71
2022/03/11 03:45:59;;;;;;;18.38;11.80;;;5.20;99.30;;;;;;4996796;28;20037;-71
2022/03/11 03:48:25;;;;;;;20.25;12.35;;;5.30;99.20;;;;;;4995701;28;20457;-71
2022/03/11 03:50:50;;;;;;;21.25;12.23;;;5.30;99.10;;;;;;5028458;28;20414;-71
2022/03/11 03:53:16;;;;;;;21.17;12.60;;;5.20;99.60;;;;;;4996739;28;20049;-71
2022/03/11 03:55:42;;;;;;;22.50;13.40;;;5.20;99.40;;;;;;5028333;28;20033;-71
2022/03/11 03:58:07;;;;;;;19.65;13.00;;;5.20;99.80;;;;;;5012869;28;20034;-71
2022/03/11 04:00:34;;;;;;;22.63;13.63;;;5.10;99.60;;;;;;4992025;28;20042;-71
2022/03/11 04:02:59;;;;;;;19.85;12.55;;;5.30;99.40;;;;;;4993466;28;20113;-71
2022/03/11 04:05:25;;;;;;;21.42;13.68;;;5.20;99.90;;;;;;5007947;28;20156;-71
2022/03/11 04:07:50;;;;;;;22.67;13.60;;;5.10;99.50;;;;;;4996704;28;20375;-71
2022/03/11 04:10:18;;;;;;;25.90;13.07;;;5.10;99.90;;;;;;5010008;28;20069;-71
2022/03/11 04:12:44;;;;;;;22.85;14.65;;;5.00;99.80;;;;;;4996631;28;20029;-71
2022/03/11 04:15:10;;;;;;;24.20;13.75;;;5.00;99.70;;;;;;5011463;28;20041;-71
2022/03/11 04:17:36;;;;;;;20.40;12.32;;;5.00;99.90;;;;;;4994130;28;20165;-71
2022/03/11 04:20:02;;;;;;;23.45;13.27;;;5.00;99.70;;;;;;5011488;28;20477;-71
2022/03/11 04:22:27;;;;;;;20.73;13.55;;;5.10;99.60;;;;;;4994922;28;20041;-71
2022/03/11 04:24:53;;;;;;;21.92;12.35;;;4.90;99.80;;;;;;5012002;28;20495;-70
2022/03/11 04:27:19;;;;;;;22.08;13.48;;;5.00;99.60;;;;;;5028807;28;20037;-71
2022/03/11 04:29:44;;;;;;;23.80;14.15;;;4.90;99.90;;;;;;5029081;28;20049;-71
2022/03/11 04:32:10;;;;;;;17.35;10.75;;;4.90;99.50;;;;;;5011023;28;20048;-71
2022/03/11 04:34:35;;;;;;;22.00;13.20;;;5.00;99.50;;;;;;4995132;28;20124;-71
2022/03/11 04:37:01;;;;;;;22.10;12.70;;;4.90;99.70;;;;;;4994421;28;20491;-71
2022/03/11 04:39:27;;;;;;;20.88;11.95;;;4.90;99.70;;;;;;5028744;28;20119;-71
2022/03/11 04:41:53;;;;;;;22.00;12.18;;;4.90;99.50;;;;;;4994030;28;20050;-71
2022/03/11 04:44:19;;;;;;;23.00;15.65;;;4.90;99.60;;;;;;5028951;28;20380;-71
2022/03/11 04:46:46;;;;;;;23.40;14.38;;;4.70;99.90;;;;;;4994384;28;20048;-71
2022/03/11 04:49:12;;;;;;;24.17;13.68;;;4.80;99.90;;;;;;5028591;28;20042;-71
2022/03/11 04:51:38;;;;;;;23.02;14.10;;;4.80;99.90;;;;;;4995035;28;20042;-71
2022/03/11 04:54:05;;;;;;;20.58;11.38;;;4.80;99.60;;;;;;5011765;28;20033;-71
2022/03/11 04:56:32;;;;;;;23.95;14.20;;;4.70;99.90;;;;;;5011271;28;20406;-71
2022/03/11 04:58:58;;;;;;;23.27;13.90;;;4.80;99.90;;;;;;4995646;28;20052;-71
2022/03/11 05:01:23;;;;;;;26.10;13.73;;;4.70;99.90;;;;;;5010979;28;20042;-70
2022/03/11 05:03:49;;;;;;;19.90;11.45;;;4.60;99.90;;;;;;5012136;28;20038;-71
2022/03/11 05:06:15;;;;;;;22.70;13.27;;;4.70;99.90;;;;;;4993201;28;20048;-71
2022/03/11 05:08:40;;;;;;;22.88;14.32;;;4.80;99.40;;;;;;4995875;28;20045;-71
2022/03/11 05:11:06;;;;;;;20.48;13.00;;;4.60;99.90;;;;;;5010949;28;20493;-71
2022/03/11 05:13:32;;;;;;;22.98;14.30;;;4.70;99.80;;;;;;5027219;28;20474;-71
2022/03/11 05:15:58;;;;;;;22.15;13.38;;;4.60;99.80;;;;;;5010915;28;20042;-71
2022/03/11 05:18:25;;;;;;;24.05;13.63;;;4.60;99.90;;;;;;4995890;28;20064;-71
2022/03/11 05:20:50;;;;;;;21.75;13.32;;;4.60;99.90;;;;;;4994889;28;20395;-71
2022/03/11 05:23:16;;;;;;;22.90;14.07;;;4.50;99.90;;;;;;5010329;28;20068;-71
2022/03/11 05:25:42;;;;;;;23.92;13.93;;;4.50;99.90;;;;;;4994793;28;20069;-71
2022/03/11 05:28:08;;;;;;;22.52;14.15;;;4.50;99.90;;;;;;4995821;28;20034;-71
2022/03/11 05:30:34;;;;;;;20.70;12.43;;;4.40;99.90;;;;;;5027215;28;20073;-71
2022/03/11 05:33:00;;;;;;;24.42;13.85;;;4.50;99.90;;;;;;5000320;28;20117;-71
2022/03/11 05:35:25;;;;;;;22.17;13.93;;;4.40;99.90;;;;;;4991985;28;20088;-71
2022/03/11 05:37:51;;;;;;;22.08;13.65;;;4.30;99.90;;;;;;5011250;28;20054;-71
2022/03/11 05:40:17;;;;;;;23.70;13.98;;;4.40;99.90;;;;;;5028034;28;20042;-71
2022/03/11 05:42:43;;;;;;;22.67;14.77;;;4.40;99.90;;;;;;5026166;28;20041;-71
2022/03/11 05:45:09;;;;;;;24.40;14.73;;;4.30;99.90;;;;;;5011671;28;20034;-71
2022/03/11 05:47:35;;;;;;;22.05;13.13;;;4.30;99.90;;;;;;5010953;28;20038;-71
2022/03/11 05:50:01;;;;;;;23.60;13.63;;;4.30;99.90;;;;;;5028059;28;20044;-70
2022/03/11 05:52:26;;;;;;;21.20;12.68;;;4.50;99.60;;;;;;5026001;28;20060;-71
2022/03/11 05:54:52;;;;;;;22.35;14.25;;;4.50;99.70;;;;;;4995370;28;20053;-71
2022/03/11 05:57:17;;;;;;;21.58;13.35;;;4.30;99.90;;;;;;5010665;28;20125;-71
2022/03/11 05:59:43;;;;;;;23.67;14.13;;;4.30;99.90;;;;;;4995191;28;20437;-71
2022/03/11 06:02:08;;;;;;;23.52;12.30;;;4.30;99.90;;;;;;4994517;28;20137;-71
2022/03/11 06:04:35;;;;;;;24.88;14.02;;;4.40;99.90;;;;;;4997168;28;20045;-71
2022/03/11 06:07:00;;;;;;;23.20;14.77;;;4.20;99.90;;;;;;5013124;28;20061;-71
2022/03/11 06:09:26;;;;;;;20.38;13.18;;;4.20;99.90;;;;;;4995639;28;20030;-71
2022/03/11 06:11:53;;;;;;;23.90;14.30;;;4.20;99.90;;;;;;5012292;28;20037;-71
2022/03/11 06:14:19;;;;;;;24.23;13.35;;;4.10;99.90;;;;;;4993890;28;20117;-70
2022/03/11 06:16:44;;;;;;;20.15;12.80;;;4.20;99.90;;;;;;4984135;28;20136;-70
2022/03/11 06:19:10;;;;;;;22.05;13.68;;;4.30;99.80;;;;;;4989067;28;20048;-70
2022/03/11 06:21:36;;;;;;;21.60;13.55;;;4.20;99.90;;;;;;5012631;28;20053;-71
2022/03/11 06:24:03;;;;;;;21.85;12.93;;;4.20;99.90;;;;;;4998192;28;20787;-70
2022/03/11 06:26:28;;;;;;;23.55;13.05;;;4.20;99.90;;;;;;5027890;28;20486;-70
2022/03/11 06:28:54;;;;;;;25.13;13.25;;;4.40;99.50;;;;;;5014331;28;20062;-70
2022/03/11 06:31:19;;;;;;;21.90;12.70;;;4.10;99.90;;;;;;5007547;28;20046;-71
2022/03/11 06:33:45;;;;;;;26.10;15.48;;;4.10;99.90;;;;;;5014526;28;20134;-70
2022/03/11 06:36:11;;;;;;;21.90;13.20;;;4.10;99.90;;;;;;4981262;28;20038;-70
2022/03/11 06:38:36;;;;;;;22.95;12.75;;;4.10;99.90;;;;;;5013799;28;20045;-70
2022/03/11 06:41:02;;;;;;;22.48;12.93;;;4.20;99.90;;;;;;5030721;28;20046;-70
2022/03/11 06:43:28;;;;;;;21.15;10.80;;;4.30;99.50;;;;;;4993438;28;20042;-70
2022/03/11 06:45:54;;;;;;;21.27;12.05;;;4.30;99.60;;;;;;5013438;28;20029;-71
2022/03/11 06:48:21;;;;;;;21.67;12.88;;;4.40;99.20;;;;;;5014163;28;20451;-71
2022/03/11 06:50:50;;;;;;;22.05;13.18;;;4.30;99.90;;;;;;5025027;28;20045;-71
2022/03/11 06:53:17;;;;;;;25.20;13.35;;;4.30;99.70;;;;;;5007044;28;20494;-70
2022/03/11 06:55:42;;;;;;;18.85;10.52;;;4.40;99.60;;;;;;4989009;28;20080;-71
2022/03/11 06:58:08;;;;;;;20.90;12.75;;;4.40;99.40;;;;;;4977824;28;20045;-70
2022/03/11 07:00:33;;;;;;;20.27;11.75;;;4.50;99.50;;;;;;4974062;28;20181;-70
2022/03/11 07:02:59;;;;;;;19.27;10.07;;;4.50;99.10;;;;;;5010452;28;20076;-70
2022/03/11 07:05:25;;;;;;;21.33;12.98;;;4.50;99.30;;;;;;4995472;28;20056;-71
2022/03/11 07:07:51;;;;;;;24.70;12.88;;;4.40;99.60;;;;;;4982285;28;20041;-71
2022/03/11 07:10:17;;;;;;;18.67;11.23;;;4.50;99.40;;;;;;4975691;28;20042;-70
2022/03/11 07:12:43;;;;;;;21.38;14.00;;;4.50;99.30;;;;;;5007749;28;20030;-72
2022/03/11 07:15:09;;;;;;;22.42;13.32;;;4.60;98.90;;;;;;4993907;28;20506;-71
2022/03/11 07:17:35;;;;;;;23.08;13.65;;;4.60;99.50;;;;;;5012960;28;20042;-70
2022/03/11 07:20:03;;;;;;;23.20;13.25;;;4.60;99.60;;;;;;5012037;28;20034;-70
2022/03/11 07:22:29;;;;;;;20.67;11.82;;;4.70;99.90;;;;;;5027230;28;20530;-70
2022/03/11 07:24:55;;;;;;;21.17;11.68;;;4.80;99.40;;;;;;5021241;28;20046;-70
2022/03/11 07:27:22;;;;;;;24.10;15.32;;;4.80;99.20;;;;;;5030023;28;20085;-70
2022/03/11 07:29:48;;;;;;;22.73;13.80;;;4.70;99.40;;;;;;4996163;28;20041;-70
2022/03/11 07:32:16;;;;;;;21.75;12.27;;;4.80;99.20;;;;;;5012951;28;20049;-70
2022/03/11 07:34:42;;;;;;;17.77;10.68;;;4.80;98.80;;;;;;5029787;28;20081;-70
2022/03/11 07:37:11;;;;;;;21.88;13.25;;;5.00;98.20;;;;;;5012013;28;20077;-70
2022/03/11 07:39:38;;;;;;;16.52;8.55;;;5.10;97.40;;;;;;5010734;28;20069;-70
2022/03/11 07:42:04;;;;;;;18.35;10.35;;;5.20;97.60;;;;;;5013085;28;20438;-70
2022/03/11 07:44:29;;;;;;;18.38;11.68;;;5.30;96.90;;;;;;5012396;28;20041;-70
2022/03/11 07:46:55;;;;;;;20.92;12.43;;;5.40;97.20;;;;;;4995415;28;20038;-70
2022/03/11 07:49:22;;;;;;;23.42;12.57;;;5.50;97.10;;;;;;5012999;28;20048;-70
2022/03/11 07:51:47;;;;;;;22.98;12.68;;;5.60;96.80;;;;;;5010935;28;20069;-70
2022/03/11 07:54:13;;;;;;;21.67;11.20;;;5.60;96.50;;;;;;5012662;28;20041;-70
2022/03/11 07:56:40;;;;;;;21.52;10.32;;;5.60;96.80;;;;;;4995939;28;20042;-70
2022/03/11 07:59:06;;;;;;;21.65;13.05;;;5.70;96.20;;;;;;5012389;28;20099;-70
2022/03/11 08:01:32;;;;;;;21.33;12.60;;;5.70;96.60;;;;;;4995615;28;20076;-70
2022/03/11 08:03:57;;;;;;;18.08;9.75;;;5.90;95.60;;;;;;4996234;28;20479;-70
2022/03/11 08:06:23;;;;;;;22.95;13.20;;;6.00;95.10;;;;;;5010340;28;20026;-70
2022/03/11 08:08:49;;;;;;;18.95;10.20;;;6.10;95.90;;;;;;4996456;28;20076;-70
2022/03/11 08:11:15;;;;;;;21.52;10.75;;;6.10;95.60;;;;;;4995168;28;20077;-70
2022/03/11 08:13:41;;;;;;;19.23;12.00;;;6.30;93.20;;;;;;5028793;28;20513;-70
2022/03/11 08:16:07;;;;;;;23.38;12.27;;;6.40;93.90;;;;;;4994057;28;20069;-70
2022/03/11 08:18:34;;;;;;;22.40;10.55;;;6.40;94.20;;;;;;5011543;28;20069;-70
2022/03/11 08:21:00;;;;;;;20.95;10.98;;;6.50;92.70;;;;;;4991616;28;20045;-74
2022/03/11 08:23:25;;;;;;;24.98;13.48;;;6.50;93.60;;;;;;5010725;28;20030;-70
2022/03/11 08:25:51;;;;;;;19.60;11.80;;;6.60;93.40;;;;;;5007341;28;20387;-70
2022/03/11 08:28:19;;;;;;;23.23;12.88;;;6.80;92.20;;;;;;4992404;28;20064;-70
2022/03/11 08:30:44;;;;;;;20.85;12.95;;;6.90;91.60;;;;;;4995319;28;20132;-70
2022/03/11 08:33:10;;;;;;;15.52;8.75;;;6.90;90.70;;;;;;5007900;28;20694;-70
2022/03/11 08:35:36;;;;;;;22.05;11.63;;;7.10;89.20;;;;;;5006027;28;20117;-70
2022/03/11 08:38:06;;;;;;;20.75;12.15;;;7.20;87.30;;;;;;4989109;28;20054;-70
2022/03/11 08:40:32;;;;;;;21.67;10.65;;;7.20;86.40;;;;;;4988227;28;20513;-70
2022/03/11 08:42:57;;;;;;;19.27;9.35;;;7.30;86.10;;;;;;4987224;28;20479;-70
2022/03/11 08:45:23;;;;;;;13.85;8.70;;;7.30;86.10;;;;;;4970226;28;20129;-70
2022/03/11 08:47:49;;;;;;;17.08;11.07;;;7.40;85.40;;;;;;4971425;28;20042;-70
2022/03/11 08:50:15;;;;;;;19.73;12.45;;;7.50;86.10;;;;;;4983599;28;20042;-70
2022/03/11 08:52:42;;;;;;;22.55;12.50;;;7.60;84.40;;;;;;4983923;28;20046;-70
2022/03/11 08:55:08;;;;;;;21.50;11.82;;;7.60;86.00;;;;;;4988688;28;20074;-70
2022/03/11 08:57:35;;;;;;;16.35;8.40;;;7.80;83.50;;;;;;5014534;28;20144;-70
2022/03/11 09:00:03;;;;;;;18.60;10.95;;;7.70;84.60;;;;;;5019398;28;20068;-70
2022/03/11 09:02:29;;;;;;;22.85;13.82;;;7.80;82.90;;;;;;4990459;28;20066;-70
2022/03/11 09:04:54;;;;;;;18.88;9.95;;;7.90;82.30;;;;;;4986211;28;20048;-70
2022/03/11 09:07:20;;;;;;;25.55;14.65;;;8.00;83.70;;;;;;4971328;28;20144;-70
2022/03/11 09:09:46;;;;;;;22.08;12.88;;;8.10;81.30;;;;;;4982676;28;20133;-70
2022/03/11 09:12:11;;;;;;;19.88;12.07;;;8.10;80.30;;;;;;5004590;28;20441;-70
2022/03/11 09:14:38;;;;;;;15.30;8.57;;;8.20;80.10;;;;;;4984968;28;20098;-70
2022/03/11 09:17:04;;;;;;;22.25;13.00;;;8.40;78.10;;;;;;4982919;28;20109;-70
2022/03/11 09:19:29;;;;;;;19.20;11.25;;;8.30;77.60;;;;;;4985075;28;20046;-70
2022/03/11 09:21:55;;;;;;;23.10;13.75;;;8.40;76.40;;;;;;4973592;28;20042;-71
2022/03/11 09:24:20;;;;;;;21.88;12.70;;;8.50;77.10;;;;;;4988895;28;20030;-71
2022/03/11 09:26:47;;;;;;;18.02;11.52;;;8.60;77.20;;;;;;5001194;28;20082;-70
2022/03/11 09:29:13;;;;;;;22.05;11.15;;;8.60;76.80;;;;;;5001835;28;20043;-70
2022/03/11 09:31:38;;;;;;;23.08;13.95;;;8.70;73.00;;;;;;4977059;28;20045;-70
2022/03/11 09:34:04;;;;;;;20.85;12.60;;;8.70;73.10;;;;;;5005757;28;20156;-70
2022/03/11 09:36:30;;;;;;;21.02;13.50;;;8.70;73.90;;;;;;4990784;28;20501;-70
2022/03/11 09:38:55;;;;;;;19.88;12.98;;;8.70;73.30;;;;;;4988193;28;20108;-70
2022/03/11 09:41:21;;;;;;;23.05;11.43;;;8.90;72.40;;;;;;4990627;28;20108;-70
2022/03/11 09:43:47;;;;;;;18.85;11.63;;;8.90;72.50;;;;;;5006618;28;20558;-70
2022/03/11 09:46:14;;;;;;;18.08;11.13;;;9.00;72.60;;;;;;4991165;28;20049;-70
2022/03/11 09:48:41;;;;;;;23.70;12.93;;;9.10;71.40;;;;;;4986508;28;20398;-70
2022/03/11 09:51:10;;;;;;;16.95;10.77;;;9.10;70.90;;;;;;5028961;28;20049;-70
2022/03/11 09:53:35;;;;;;;20.85;12.50;;;9.20;69.40;;;;;;4998474;28;20054;-70
2022/03/11 09:56:01;;;;;;;20.25;12.90;;;9.20;71.70;;;;;;5015196;28;20048;-70
2022/03/11 09:58:27;;;;;;;18.52;10.45;;;9.40;68.50;;;;;;5014645;28;20042;-70
2022/03/11 10:00:52;;;;;;;20.10;12.93;;;9.40;69.40;;;;;;4996886;28;20442;-70
2022/03/11 10:03:18;;;;;;;19.70;11.43;;;9.50;68.00;;;;;;5020551;28;20493;-70
2022/03/11 10:05:54;;;;;;;20.85;11.27;;;9.50;68.30;;;;;;5029743;28;21083;-70
2022/03/11 10:08:37;;;;;;;21.95;13.15;;;9.50;68.80;;;;;;5013720;28;20030;-70
2022/03/11 10:11:24;;;;;;;22.30;12.50;;;9.60;68.30;;;;;;5028142;28;20088;-70
2022/03/11 10:13:54;;;;;;;21.02;12.20;;;9.70;68.90;;;;;;4982947;28;20145;-70
2022/03/11 10:16:25;;;;;;;21.88;12.52;;;9.80;67.00;;;;;;4998004;28;21015;-70
2022/03/11 10:19:10;;;;;;;21.77;12.70;;;9.80;66.30;;;;;;4991864;28;20045;-71
2022/03/11 10:21:40;;;;;;;15.27;8.77;;;9.90;65.70;;;;;;5028979;28;20042;-70
2022/03/11 10:24:08;;;;;;;19.55;11.38;;;9.90;65.70;;;;;;5014091;28;20038;-70
2022/03/11 10:26:35;;;;;;;20.95;12.70;;;9.90;66.00;;;;;;5014617;28;20042;-70
2022/03/11 10:29:02;;;;;;;18.90;12.90;;;10.10;64.50;;;;;;5014226;28;20084;-70
2022/03/11 10:31:30;;;;;;;20.90;12.13;;;10.10;64.30;;;;;;4997644;28;20042;-70
2022/03/11 10:34:14;;;;;;;20.55;12.73;;;10.20;61.80;;;;;;5013284;28;20375;-70
2022/03/11 10:37:04;;;;;;;20.50;13.32;;;10.20;61.30;;;;;;5012890;28;20045;-70
2022/03/11 10:39:37;;;;;;;22.10;14.30;;;10.20;63.90;;;;;;5030586;28;20142;-70
2022/03/11 10:42:12;;;;;;;17.48;9.23;;;10.20;65.00;;;;;;4994197;28;20041;-70
2022/03/11 10:44:53;;;;;;;18.23;11.48;;;10.40;62.00;;;;;;5012034;28;20040;-70
2022/03/11 10:47:22;;;;;;;20.33;11.32;;;10.40;59.70;;;;;;5013927;28;20045;-70
2022/03/11 10:49:59;;;;;;;20.20;13.05;;;10.40;59.90;;;;;;5015255;28;20038;-70
2022/03/11 10:52:36;;;;;;;18.80;11.57;;;10.40;60.70;;;;;;5013145;28;20100;-70
2022/03/11 10:55:16;;;;;;;16.95;11.25;;;10.50;60.30;;;;;;5011832;28;20037;-70
2022/03/11 10:57:41;;;;;;;21.17;12.32;;;10.50;58.50;;;;;;4996801;28;20049;-70
2022/03/11 11:00:23;;;;;;;22.38;11.73;;;10.50;58.60;;;;;;5012109;28;20033;-70
2022/03/11 11:02:56;;;;;;;19.13;12.30;;;10.40;59.00;;;;;;5008779;28;20037;-70
2022/03/11 11:05:23;;;;;;;19.35;12.13;;;10.40;59.30;;;;;;5011269;28;20080;-70
2022/03/11 11:07:49;;;;;;;15.65;8.00;;;10.50;59.50;;;;;;5030631;28;20130;-70
2022/03/11 11:10:18;;;;;;;19.40;9.95;;;10.60;58.00;;;;;;5029146;28;20045;-70
2022/03/11 11:12:44;;;;;;;21.02;12.10;;;10.60;57.50;;;;;;4993658;28;20049;-70
2022/03/11 11:15:11;;;;;;;18.35;11.85;;;10.50;58.40;;;;;;4996766;28;20080;-70
2022/03/11 11:17:39;;;;;;;18.58;11.00;;;10.60;59.50;;;;;;4996665;28;20049;-70
2022/03/11 11:20:23;;;;;;;18.65;11.38;;;10.70;57.80;;;;;;4996877;28;20148;-70
2022/03/11 11:22:51;;;;;;;15.73;9.25;;;10.70;58.50;;;;;;5008242;28;20081;-70
2022/03/11 11:25:20;;;;;;;20.42;12.68;;;10.70;57.70;;;;;;5020244;28;20453;-70
2022/03/11 11:27:46;;;;;;;17.98;11.13;;;10.60;58.40;;;;;;5012491;28;20486;-70
2022/03/11 11:30:17;;;;;;;17.77;10.23;;;10.80;56.20;;;;;;5009105;28;20045;-70
2022/03/11 11:32:43;;;;;;;19.25;11.73;;;10.70;56.60;;;;;;5009707;28;20034;-70
2022/03/11 11:35:34;;;;;;;20.73;12.60;;;10.70;57.60;;;;;;4993222;28;20030;-70
2022/03/11 11:38:02;;;;;;;21.05;12.70;;;10.70;57.40;;;;;;5011462;28;20045;-70
2022/03/11 11:40:47;;;;;;;17.95;10.80;;;10.70;57.50;;;;;;5008408;28;20077;-70
2022/03/11 11:43:28;;;;;;;18.85;10.95;;;10.80;55.80;;;;;;5005156;28;20042;-70
2022/03/11 11:46:11;;;;;;;21.05;12.70;;;10.80;56.20;;;;;;5010015;28;20038;-70
2022/03/11 11:48:43;;;;;;;20.55;13.27;;;10.70;57.00;;;;;;4996407;28;20033;-70
2022/03/11 11:51:31;;;;;;;18.02;12.07;;;10.60;57.90;;;;;;4998237;28;20052;-70
2022/03/11 11:54:08;;;;;;;22.50;11.68;;;10.70;57.20;;;;;;4991938;28;20522;-70
2022/03/11 11:56:38;;;;;;;17.73;11.60;;;10.80;56.40;;;;;;4996244;28;20076;-70
2022/03/11 11:59:19;;;;;;;18.63;11.13;;;10.80;57.00;;;;;;5013906;28;20134;-70
2022/03/11 12:01:47;;;;;;;18.75;11.90;;;10.80;56.60;;;;;;5002060;28;20039;-70
2022/03/11 12:04:29;;;;;;;19.60;12.55;;;10.90;56.70;;;;;;4998082;28;20124;-71
2022/03/11 12:07:05;;;;;;;18.23;11.20;;;11.00;56.10;;;;;;5009985;28;20041;-70
2022/03/11 12:09:45;;;;;;;16.35;10.02;;;11.00;56.80;;;;;;4994432;28;20038;-70
2022/03/11 12:12:25;;;;;;;18.92;11.65;;;11.00;55.50;;;;;;5009467;28;20045;-70
2022/03/11 12:14:56;;;;;;;18.27;11.70;;;11.00;55.70;;;;;;5009965;28;20041;-70
2022/03/11 12:17:42;;;;;;;18.33;11.43;;;11.00;55.50;;;;;;4993156;28;20046;-70
2022/03/11 12:20:46;;;;;;;17.33;10.02;;;11.00;57.30;;;;;;4997075;28;20065;-71
2022/03/11 12:23:12;;;;;;;17.55;11.82;;;11.10;56.10;;;;;;4994097;28;20390;-70
2022/03/11 12:25:54;;;;;;;17.20;10.75;;;11.20;55.20;;;;;;5011128;28;20448;-70
2022/03/11 12:28:31;;;;;;;16.73;11.27;;;11.20;55.80;;;;;;5011397;28;20045;-70
2022/03/11 12:31:05;;;;;;;19.85;12.23;;;11.30;54.70;;;;;;5012131;28;20072;-70
2022/03/11 12:33:34;;;;;;;17.65;9.85;;;11.20;54.60;;;;;;5026895;28;20125;-70
2022/03/11 12:36:02;;;;;;;20.35;12.07;;;11.20;53.90;;;;;;5025495;28;20041;-70
2022/03/11 12:38:31;;;;;;;18.42;9.68;;;11.20;54.50;;;;;;4993548;28;20056;-70
2022/03/11 12:41:03;;;;;;;18.85;11.25;;;11.30;54.00;;;;;;4993760;28;20104;-70